sensor_id;sensor_type;location;lat;lon;timestamp;pressure;altitude;pressure_sealevel;temperature;humidity
6829;BME280;17930;48.592;8.868;2022-11-11T00:00:58;98170.16;;;2.64;100.00
6829;BME280;17930;48.592;8.868;2022-11-11T00:03:25;98174.22;;;2.80;100.00
6829;BME280;17930;48.592;8.868;2022-11-11T00:05:52;98175.03;;;2.87;100.00
6829;BME280;17930;48.592;8.868;2022-11-11T00:08:18;98181.41;;;2.91;100.00
6829;BME280;17930;48.592;8.868;2022-11-11T00:10:46;98175.09;;;2.93;100.00
6829;BME280;17930;48.592;8.868;2022-11-11T00:13:13;98177.94;;;3.04;100.00
6829;BME280;17930;48.592;8.868;2022-11-11T00:15:40;98173.22;;;3.14;100.00
6829;BME280;17930;48.592;8.868;2022-11-11T00:18:09;98173.47;;;3.19;100.00
6829;BME280;17930;48.592;8.868;2022-11-11T00:20:56;98167.22;;;3.41;100.00
6829;BME280;17930;48.592;8.868;2022-11-11T00:23:41;98176.56;;;3.42;100.00
6829;BME280;17930;48.592;8.868;2022-11-11T00:26:26;98175.34;;;3.38;100.00
6829;BME280;17930;48.592;8.868;2022-11-11T00:28:53;98167.63;;;3.38;100.00
6829;BME280;17930;48.592;8.868;2022-11-11T00:31:20;98171.56;;;3.34;100.00
6829;BME280;17930;48.592;8.868;2022-11-11T00:33:47;98167.69;;;3.17;100.00
6829;BME280;17930;48.592;8.868;2022-11-11T00:36:13;98170.59;;;3.02;100.00
6829;BME280;17930;48.592;8.868;2022-11-11T00:38:40;98174.91;;;2.95;100.00
6829;BME280;17930;48.592;8.868;2022-11-11T00:41:16;98174.31;;;2.93;100.00
6829;BME280;17930;48.592;8.868;2022-11-11T00:43:45;98181.78;;;2.88;100.00
6829;BME280;17930;48.592;8.868;2022-11-11T00:46:13;98193.69;;;2.89;100.00
6829;BME280;17930;48.592;8.868;2022-11-11T00:48:58;98186.47;;;2.78;100.00
6829;BME280;17930;48.592;8.868;2022-11-11T00:51:43;98189.56;;;2.67;100.00
6829;BME280;17930;48.592;8.868;2022-11-11T00:54:11;98187.69;;;2.82;100.00
6829;BME280;17930;48.592;8.868;2022-11-11T00:56:38;98194.19;;;2.78;100.00
6829;BME280;17930;48.592;8.868;2022-11-11T00:59:07;98199.50;;;2.70;100.00
6829;BME280;17930;48.592;8.868;2022-11-11T01:01:36;98204.41;;;2.65;100.00
6829;BME280;17930;48.592;8.868;2022-11-11T01:04:03;98202.25;;;2.68;100.00
6829;BME280;17930;48.592;8.868;2022-11-11T01:06:30;98197.91;;;2.69;100.00
6829;BME280;17930;48.592;8.868;2022-11-11T01:08:57;98203.53;;;2.58;100.00
6829;BME280;17930;48.592;8.868;2022-11-11T01:11:24;98202.84;;;2.43;100.00
6829;BME280;17930;48.592;8.868;2022-11-11T01:13:51;98204.28;;;2.31;100.00
6829;BME280;17930;48.592;8.868;2022-11-11T01:16:20;98200.94;;;2.31;100.00
6829;BME280;17930;48.592;8.868;2022-11-11T01:18:48;98194.75;;;2.25;100.00
6829;BME280;17930;48.592;8.868;2022-11-11T01:21:16;98199.41;;;2.15;100.00
6829;BME280;17930;48.592;8.868;2022-11-11T01:23:44;98200.56;;;2.13;100.00
6829;BME280;17930;48.592;8.868;2022-11-11T01:26:13;98201.72;;;2.10;100.00
6829;BME280;17930;48.592;8.868;2022-11-11T01:28:41;98202.22;;;2.20;100.00
6829;BME280;17930;48.592;8.868;2022-11-11T01:31:10;98200.78;;;2.87;100.00
6829;BME280;17930;48.592;8.868;2022-11-11T01:33:38;98210.06;;;3.08;100.00
6829;BME280;17930;48.592;8.868;2022-11-11T01:36:07;98207.31;;;3.10;100.00
6829;BME280;17930;48.592;8.868;2022-11-11T01:38:35;98217.94;;;3.01;100.00
6829;BME280;17930;48.592;8.868;2022-11-11T01:41:03;98217.94;;;3.01;100.00
6829;BME280;17930;48.592;8.868;2022-11-11T01:43:51;98216.69;;;2.90;100.00
6829;BME280;17930;48.592;8.868;2022-11-11T01:46:25;98219.06;;;2.92;100.00
6829;BME280;17930;48.592;8.868;2022-11-11T01:48:57;98204.53;;;3.11;100.00
6829;BME280;17930;48.592;8.868;2022-11-11T01:51:47;98205.84;;;3.28;100.00
6829;BME280;17930;48.592;8.868;2022-11-11T01:54:18;98209.38;;;3.21;100.00
6829;BME280;17930;48.592;8.868;2022-11-11T01:56:48;98207.16;;;3.18;100.00
6829;BME280;17930;48.592;8.868;2022-11-11T01:59:16;98216.00;;;3.09;100.00
6829;BME280;17930;48.592;8.868;2022-11-11T02:01:43;98223.06;;;2.94;100.00
6829;BME280;17930;48.592;8.868;2022-11-11T02:04:11;98216.81;;;3.09;100.00
6829;BME280;17930;48.592;8.868;2022-11-11T02:06:58;98219.63;;;3.14;100.00
6829;BME280;17930;48.592;8.868;2022-11-11T02:09:26;98218.56;;;3.03;100.00
6829;BME280;17930;48.592;8.868;2022-11-11T02:11:54;98222.50;;;2.99;100.00
6829;BME280;17930;48.592;8.868;2022-11-11T02:14:43;98207.16;;;2.91;100.00
6829;BME280;17930;48.592;8.868;2022-11-11T02:17:13;98192.47;;;2.85;100.00
6829;BME280;17930;48.592;8.868;2022-11-11T02:19:45;98200.00;;;2.86;100.00
6829;BME280;17930;48.592;8.868;2022-11-11T02:22:18;98198.09;;;2.95;100.00
6829;BME280;17930;48.592;8.868;2022-11-11T02:24:50;98190.69;;;3.12;100.00
6829;BME280;17930;48.592;8.868;2022-11-11T02:27:18;98195.53;;;3.35;100.00
6829;BME280;17930;48.592;8.868;2022-11-11T02:29:48;98196.50;;;3.27;100.00
6829;BME280;17930;48.592;8.868;2022-11-11T02:32:15;98196.16;;;3.37;100.00
6829;BME280;17930;48.592;8.868;2022-11-11T02:34:42;98203.84;;;3.30;100.00
6829;BME280;17930;48.592;8.868;2022-11-11T02:37:09;98209.25;;;3.35;100.00
6829;BME280;17930;48.592;8.868;2022-11-11T02:39:39;98211.19;;;3.27;100.00
6829;BME280;17930;48.592;8.868;2022-11-11T02:42:09;98212.53;;;3.23;100.00
6829;BME280;17930;48.592;8.868;2022-11-11T02:44:39;98204.03;;;3.22;100.00
6829;BME280;17930;48.592;8.868;2022-11-11T02:47:06;98202.28;;;3.29;100.00
6829;BME280;17930;48.592;8.868;2022-11-11T02:49:32;98207.06;;;3.39;100.00
6829;BME280;17930;48.592;8.868;2022-11-11T02:51:59;98203.19;;;3.55;100.00
6829;BME280;17930;48.592;8.868;2022-11-11T02:54:26;98209.22;;;3.69;100.00
6829;BME280;17930;48.592;8.868;2022-11-11T02:56:52;98205.84;;;3.81;100.00
6829;BME280;17930;48.592;8.868;2022-11-11T02:59:37;98208.78;;;3.59;100.00
6829;BME280;17930;48.592;8.868;2022-11-11T03:02:04;98209.06;;;3.43;100.00
6829;BME280;17930;48.592;8.868;2022-11-11T03:04:32;98217.34;;;3.32;100.00
6829;BME280;17930;48.592;8.868;2022-11-11T03:06:59;98213.88;;;3.46;100.00
6829;BME280;17930;48.592;8.868;2022-11-11T03:09:26;98215.56;;;3.33;100.00
6829;BME280;17930;48.592;8.868;2022-11-11T03:11:53;98216.78;;;3.37;100.00
6829;BME280;17930;48.592;8.868;2022-11-11T03:14:19;98219.03;;;3.53;100.00
6829;BME280;17930;48.592;8.868;2022-11-11T03:16:48;98216.19;;;3.75;100.00
6829;BME280;17930;48.592;8.868;2022-11-11T03:19:32;98207.47;;;3.76;100.00
6829;BME280;17930;48.592;8.868;2022-11-11T03:21:59;98203.56;;;3.53;100.00
6829;BME280;17930;48.592;8.868;2022-11-11T03:24:28;98208.28;;;3.36;100.00
6829;BME280;17930;48.592;8.868;2022-11-11T03:27:15;98209.44;;;3.40;100.00
6829;BME280;17930;48.592;8.868;2022-11-11T03:29:42;98210.78;;;3.30;100.00
6829;BME280;17930;48.592;8.868;2022-11-11T03:32:10;98206.22;;;3.32;100.00
6829;BME280;17930;48.592;8.868;2022-11-11T03:34:37;98203.00;;;3.17;100.00
6829;BME280;17930;48.592;8.868;2022-11-11T03:37:05;98201.13;;;3.04;100.00
6829;BME280;17930;48.592;8.868;2022-11-11T03:39:50;98211.22;;;3.00;100.00
6829;BME280;17930;48.592;8.868;2022-11-11T03:42:16;98215.13;;;2.96;100.00
6829;BME280;17930;48.592;8.868;2022-11-11T03:44:43;98208.53;;;2.87;100.00
6829;BME280;17930;48.592;8.868;2022-11-11T03:47:11;98207.59;;;2.94;100.00
6829;BME280;17930;48.592;8.868;2022-11-11T03:49:41;98198.09;;;2.95;100.00
6829;BME280;17930;48.592;8.868;2022-11-11T03:52:07;98207.63;;;3.01;100.00
6829;BME280;17930;48.592;8.868;2022-11-11T03:54:34;98206.34;;;3.17;100.00
6829;BME280;17930;48.592;8.868;2022-11-11T03:57:01;98195.91;;;3.25;100.00
6829;BME280;17930;48.592;8.868;2022-11-11T03:59:45;98204.63;;;3.24;100.00
6829;BME280;17930;48.592;8.868;2022-11-11T04:02:13;98202.22;;;3.23;100.00
6829;BME280;17930;48.592;8.868;2022-11-11T04:04:58;98206.50;;;3.43;100.00
6829;BME280;17930;48.592;8.868;2022-11-11T04:07:42;98202.28;;;3.29;100.00
6829;BME280;17930;48.592;8.868;2022-11-11T04:10:28;98198.69;;;3.30;100.00
6829;BME280;17930;48.592;8.868;2022-11-11T04:12:56;98201.44;;;3.22;100.00
6829;BME280;17930;48.592;8.868;2022-11-11T04:15:41;98210.97;;;3.28;100.00
6829;BME280;17930;48.592;8.868;2022-11-11T04:18:27;98203.13;;;3.36;100.00
6829;BME280;17930;48.592;8.868;2022-11-11T04:21:08;98204.22;;;3.27;100.00
6829;BME280;17930;48.592;8.868;2022-11-11T04:23:52;98220.84;;;3.18;100.00
6829;BME280;17930;48.592;8.868;2022-11-11T04:26:19;98221.59;;;3.12;100.00
6829;BME280;17930;48.592;8.868;2022-11-11T04:28:45;98216.28;;;3.20;100.00
6829;BME280;17930;48.592;8.868;2022-11-11T04:31:29;98214.38;;;3.02;100.00
6829;BME280;17930;48.592;8.868;2022-11-11T04:33:57;98218.47;;;2.90;100.00
6829;BME280;17930;48.592;8.868;2022-11-11T04:36:24;98220.56;;;2.80;100.00
6829;BME280;17930;48.592;8.868;2022-11-11T04:38:51;98217.53;;;2.70;100.00
6829;BME280;17930;48.592;8.868;2022-11-11T04:41:31;98218.50;;;2.69;100.00
6829;BME280;17930;48.592;8.868;2022-11-11T04:43:58;98212.59;;;2.75;100.00
6829;BME280;17930;48.592;8.868;2022-11-11T04:46:42;98212.59;;;2.75;100.00
6829;BME280;17930;48.592;8.868;2022-11-11T04:49:11;98213.81;;;2.79;100.00
6829;BME280;17930;48.592;8.868;2022-11-11T04:51:37;98217.56;;;2.76;100.00
6829;BME280;17930;48.592;8.868;2022-11-11T04:54:22;98213.34;;;2.69;100.00
6829;BME280;17930;48.592;8.868;2022-11-11T04:56:48;98225.97;;;2.64;100.00
6829;BME280;17930;48.592;8.868;2022-11-11T04:59:14;98220.09;;;2.70;100.00
6829;BME280;17930;48.592;8.868;2022-11-11T05:01:41;98234.22;;;2.53;100.00
6829;BME280;17930;48.592;8.868;2022-11-11T05:04:27;98238.63;;;2.38;100.00
6829;BME280;17930;48.592;8.868;2022-11-11T05:06:54;98243.72;;;2.32;100.00
6829;BME280;17930;48.592;8.868;2022-11-11T05:09:38;98250.50;;;2.18;100.00
6829;BME280;17930;48.592;8.868;2022-11-11T05:12:06;98250.38;;;2.26;100.00
6829;BME280;17930;48.592;8.868;2022-11-11T05:14:32;98247.81;;;2.26;100.00
6829;BME280;17930;48.592;8.868;2022-11-11T05:17:17;98259.03;;;2.40;100.00
6829;BME280;17930;48.592;8.868;2022-11-11T05:20:03;98264.09;;;2.54;100.00
6829;BME280;17930;48.592;8.868;2022-11-11T05:22:46;98266.56;;;2.41;100.00
6829;BME280;17930;48.592;8.868;2022-11-11T05:25:13;98266.69;;;2.33;100.00
6829;BME280;17930;48.592;8.868;2022-11-11T05:27:52;98267.00;;;2.45;100.00
6829;BME280;17930;48.592;8.868;2022-11-11T05:30:20;98277.88;;;2.26;100.00
6829;BME280;17930;48.592;8.868;2022-11-11T05:32:48;98279.72;;;1.97;100.00
6829;BME280;17930;48.592;8.868;2022-11-11T05:35:16;98283.56;;;1.72;100.00
6829;BME280;17930;48.592;8.868;2022-11-11T05:37:43;98287.97;;;1.78;100.00
6829;BME280;17930;48.592;8.868;2022-11-11T05:40:30;98300.75;;;1.86;100.00
6829;BME280;17930;48.592;8.868;2022-11-11T05:42:57;98289.94;;;1.76;100.00
6829;BME280;17930;48.592;8.868;2022-11-11T05:45:23;98297.91;;;1.81;100.00
6829;BME280;17930;48.592;8.868;2022-11-11T05:47:50;98295.25;;;1.89;100.00
6829;BME280;17930;48.592;8.868;2022-11-11T05:50:18;98303.69;;;1.83;100.00
6829;BME280;17930;48.592;8.868;2022-11-11T05:52:48;98318.16;;;1.84;100.00
6829;BME280;17930;48.592;8.868;2022-11-11T05:55:15;98318.03;;;1.92;100.00
6829;BME280;17930;48.592;8.868;2022-11-11T05:57:42;98321.94;;;2.02;100.00
6829;BME280;17930;48.592;8.868;2022-11-11T06:00:10;98328.59;;;1.97;100.00
6829;BME280;17930;48.592;8.868;2022-11-11T06:02:37;98330.38;;;1.82;100.00
6829;BME280;17930;48.592;8.868;2022-11-11T06:05:05;98332.69;;;1.77;100.00
6829;BME280;17930;48.592;8.868;2022-11-11T06:07:36;98327.00;;;1.67;100.00
6829;BME280;17930;48.592;8.868;2022-11-11T06:10:03;98327.25;;;1.57;100.00
6829;BME280;17930;48.592;8.868;2022-11-11T06:12:44;98326.66;;;1.70;100.00
6829;BME280;17930;48.592;8.868;2022-11-11T06:15:25;98326.53;;;1.78;100.00
6829;BME280;17930;48.592;8.868;2022-11-11T06:17:51;98337.81;;;1.62;100.00
6829;BME280;17930;48.592;8.868;2022-11-11T06:20:18;98331.06;;;1.47;100.00
6829;BME280;17930;48.592;8.868;2022-11-11T06:22:46;98335.75;;;1.29;100.00
6829;BME280;17930;48.592;8.868;2022-11-11T06:25:22;98341.94;;;1.20;100.00
6829;BME280;17930;48.592;8.868;2022-11-11T06:28:07;98344.31;;;1.22;100.00
6829;BME280;17930;48.592;8.868;2022-11-11T06:30:34;98356.34;;;1.21;100.00
6829;BME280;17930;48.592;8.868;2022-11-11T06:33:00;98339.00;;;1.23;100.00
6829;BME280;17930;48.592;8.868;2022-11-11T06:35:27;98347.31;;;1.25;100.00
6829;BME280;17930;48.592;8.868;2022-11-11T06:37:55;98353.16;;;1.56;100.00
6829;BME280;17930;48.592;8.868;2022-11-11T06:40:22;98354.84;;;1.78;100.00
6829;BME280;17930;48.592;8.868;2022-11-11T06:42:49;98352.19;;;1.86;100.00
6829;BME280;17930;48.592;8.868;2022-11-11T06:45:16;98351.22;;;2.01;100.00
6829;BME280;17930;48.592;8.868;2022-11-11T06:47:43;98352.44;;;2.19;100.00
6829;BME280;17930;48.592;8.868;2022-11-11T06:50:10;98350.97;;;2.31;100.00
6829;BME280;17930;48.592;8.868;2022-11-11T06:52:36;98356.59;;;2.20;100.00
6829;BME280;17930;48.592;8.868;2022-11-11T06:55:05;98361.91;;;2.04;100.00
6829;BME280;17930;48.592;8.868;2022-11-11T06:57:32;98359.28;;;2.12;100.00
6829;BME280;17930;48.592;8.868;2022-11-11T06:59:59;98357.28;;;2.29;100.00
6829;BME280;17930;48.592;8.868;2022-11-11T07:02:25;98360.69;;;2.64;100.00
6829;BME280;17930;48.592;8.868;2022-11-11T07:04:52;98370.13;;;2.78;100.00
6829;BME280;17930;48.592;8.868;2022-11-11T07:07:20;98367.59;;;2.85;100.00
6829;BME280;17930;48.592;8.868;2022-11-11T07:09:47;98371.41;;;2.89;100.00
6829;BME280;17930;48.592;8.868;2022-11-11T07:12:15;98375.09;;;2.80;100.00
6829;BME280;17930;48.592;8.868;2022-11-11T07:14:42;98370.97;;;2.64;100.00
6829;BME280;17930;48.592;8.868;2022-11-11T07:17:09;98379.13;;;2.68;100.00
6829;BME280;17930;48.592;8.868;2022-11-11T07:19:36;98378.88;;;2.84;100.00
6829;BME280;17930;48.592;8.868;2022-11-11T07:22:03;98377.03;;;2.78;100.00
6829;BME280;17930;48.592;8.868;2022-11-11T07:24:29;98379.69;;;2.84;100.00
6829;BME280;17930;48.592;8.868;2022-11-11T07:26:56;98387.84;;;2.88;100.00
6829;BME280;17930;48.592;8.868;2022-11-11T07:29:25;98382.31;;;2.91;100.00
6829;BME280;17930;48.592;8.868;2022-11-11T07:31:53;98383.19;;;2.98;100.00
6829;BME280;17930;48.592;8.868;2022-11-11T07:34:20;98378.31;;;3.03;100.00
6829;BME280;17930;48.592;8.868;2022-11-11T07:36:47;98383.13;;;3.12;100.00
6829;BME280;17930;48.592;8.868;2022-11-11T07:39:14;98382.91;;;3.28;100.00
6829;BME280;17930;48.592;8.868;2022-11-11T07:41:40;98382.94;;;3.34;100.00
6829;BME280;17930;48.592;8.868;2022-11-11T07:44:07;98381.47;;;3.25;100.00
6829;BME280;17930;48.592;8.868;2022-11-11T07:46:35;98384.84;;;3.53;100.00
6829;BME280;17930;48.592;8.868;2022-11-11T07:49:02;98373.91;;;3.72;100.00
6829;BME280;17930;48.592;8.868;2022-11-11T07:51:28;98374.13;;;3.77;100.00
6829;BME280;17930;48.592;8.868;2022-11-11T07:53:55;98373.91;;;3.72;100.00
6829;BME280;17930;48.592;8.868;2022-11-11T07:56:22;98377.22;;;4.00;100.00
6829;BME280;17930;48.592;8.868;2022-11-11T07:58:49;98376.66;;;4.44;100.00
6829;BME280;17930;48.592;8.868;2022-11-11T08:01:15;98373.16;;;4.58;100.00
6829;BME280;17930;48.592;8.868;2022-11-11T08:03:43;98377.56;;;4.77;100.00
6829;BME280;17930;48.592;8.868;2022-11-11T08:06:15;98381.97;;;4.96;100.00
6829;BME280;17930;48.592;8.868;2022-11-11T08:08:42;98371.91;;;5.20;100.00
6829;BME280;17930;48.592;8.868;2022-11-11T08:11:09;98372.66;;;5.14;100.00
6829;BME280;17930;48.592;8.868;2022-11-11T08:13:36;98377.28;;;5.31;100.00
6829;BME280;17930;48.592;8.868;2022-11-11T08:16:11;98377.84;;;5.46;100.00
6829;BME280;17930;48.592;8.868;2022-11-11T08:18:38;98364.72;;;5.93;100.00
6829;BME280;17930;48.592;8.868;2022-11-11T08:21:06;98362.88;;;6.12;100.00
6829;BME280;17930;48.592;8.868;2022-11-11T08:23:33;98362.75;;;6.45;100.00
6829;BME280;17930;48.592;8.868;2022-11-11T08:26:00;98362.09;;;6.93;100.00
6829;BME280;17930;48.592;8.868;2022-11-11T08:28:28;98362.69;;;7.25;100.00
6829;BME280;17930;48.592;8.868;2022-11-11T08:30:58;98348.59;;;7.63;100.00
6829;BME280;17930;48.592;8.868;2022-11-11T08:33:26;98349.75;;;8.27;100.00
6829;BME280;17930;48.592;8.868;2022-11-11T08:35:54;98345.66;;;8.67;100.00
6829;BME280;17930;48.592;8.868;2022-11-11T08:38:22;98345.84;;;8.54;100.00
6829;BME280;17930;48.592;8.868;2022-11-11T08:40:49;98345.50;;;8.51;100.00
6829;BME280;17930;48.592;8.868;2022-11-11T08:43:15;98358.09;;;8.65;100.00
6829;BME280;17930;48.592;8.868;2022-11-11T08:45:42;98362.03;;;8.38;100.00
6829;BME280;17930;48.592;8.868;2022-11-11T08:48:09;98365.97;;;8.76;100.00
6829;BME280;17930;48.592;8.868;2022-11-11T08:50:37;98360.81;;;8.70;100.00
6829;BME280;17930;48.592;8.868;2022-11-11T08:53:05;98354.50;;;8.66;100.00
6829;BME280;17930;48.592;8.868;2022-11-11T08:55:34;98356.22;;;9.01;100.00
6829;BME280;17930;48.592;8.868;2022-11-11T08:58:02;98356.41;;;9.40;100.00
6829;BME280;17930;48.592;8.868;2022-11-11T09:00:30;98352.72;;;9.59;100.00
6829;BME280;17930;48.592;8.868;2022-11-11T09:02:59;98359.94;;;9.57;100.00
6829;BME280;17930;48.592;8.868;2022-11-11T09:05:26;98353.50;;;9.71;100.00
6829;BME280;17930;48.592;8.868;2022-11-11T09:07:53;98355.47;;;9.23;100.00
6829;BME280;17930;48.592;8.868;2022-11-11T09:10:19;98349.97;;;9.54;100.00
6829;BME280;17930;48.592;8.868;2022-11-11T09:12:47;98349.69;;;9.10;100.00
6829;BME280;17930;48.592;8.868;2022-11-11T09:15:14;98354.44;;;8.84;100.00
6829;BME280;17930;48.592;8.868;2022-11-11T09:17:45;98360.81;;;8.41;100.00
6829;BME280;17930;48.592;8.868;2022-11-11T09:20:12;98363.03;;;8.55;100.00
6829;BME280;17930;48.592;8.868;2022-11-11T09:22:41;98348.03;;;8.21;100.00
6829;BME280;17930;48.592;8.868;2022-11-11T09:25:08;98348.41;;;8.01;100.00
6829;BME280;17930;48.592;8.868;2022-11-11T09:27:35;98346.84;;;8.00;100.00
6829;BME280;17930;48.592;8.868;2022-11-11T09:30:04;98344.09;;;7.95;100.00
6829;BME280;17930;48.592;8.868;2022-11-11T09:32:31;98343.44;;;7.99;100.00
6829;BME280;17930;48.592;8.868;2022-11-11T09:34:58;98344.59;;;7.85;100.00
6829;BME280;17930;48.592;8.868;2022-11-11T09:37:26;98348.69;;;7.75;100.00
6829;BME280;17930;48.592;8.868;2022-11-11T09:39:52;98347.25;;;7.79;100.00
6829;BME280;17930;48.592;8.868;2022-11-11T09:42:29;98349.81;;;7.85;100.00
6829;BME280;17930;48.592;8.868;2022-11-11T09:45:15;98339.91;;;7.76;100.00
6829;BME280;17930;48.592;8.868;2022-11-11T09:47:51;98336.66;;;7.80;100.00
6829;BME280;17930;48.592;8.868;2022-11-11T09:50:21;98337.75;;;8.09;100.00
6829;BME280;17930;48.592;8.868;2022-11-11T09:52:51;98335.03;;;8.21;100.00
6829;BME280;17930;48.592;8.868;2022-11-11T09:55:22;98333.94;;;8.47;100.00
6829;BME280;17930;48.592;8.868;2022-11-11T09:57:55;98332.81;;;8.72;100.00
6829;BME280;17930;48.592;8.868;2022-11-11T10:00:28;98324.00;;;8.73;100.00
6829;BME280;17930;48.592;8.868;2022-11-11T10:02:58;98329.88;;;8.80;100.00
6829;BME280;17930;48.592;8.868;2022-11-11T10:05:33;98321.00;;;8.87;100.00
6829;BME280;17930;48.592;8.868;2022-11-11T10:08:04;98321.25;;;8.97;100.00
6829;BME280;17930;48.592;8.868;2022-11-11T10:10:39;98317.69;;;9.21;100.00
6829;BME280;17930;48.592;8.868;2022-11-11T10:13:13;98311.13;;;9.41;100.00
6829;BME280;17930;48.592;8.868;2022-11-11T10:15:50;98314.19;;;9.61;100.00
6829;BME280;17930;48.592;8.868;2022-11-11T10:18:32;98318.03;;;9.70;100.00
6829;BME280;17930;48.592;8.868;2022-11-11T10:21:13;98320.75;;;9.75;100.00
6829;BME280;17930;48.592;8.868;2022-11-11T10:23:42;98319.84;;;9.81;100.00
6829;BME280;17930;48.592;8.868;2022-11-11T10:26:17;98319.28;;;9.90;100.00
6829;BME280;17930;48.592;8.868;2022-11-11T10:28:46;98315.44;;;10.16;100.00
6829;BME280;17930;48.592;8.868;2022-11-11T10:31:18;98319.34;;;10.69;100.00
6829;BME280;17930;48.592;8.868;2022-11-11T10:33:49;98315.53;;;11.04;100.00
6829;BME280;17930;48.592;8.868;2022-11-11T10:36:19;98311.19;;;11.25;100.00
6829;BME280;17930;48.592;8.868;2022-11-11T10:38:50;98313.63;;;11.16;100.00
6829;BME280;17930;48.592;8.868;2022-11-11T10:41:22;98314.38;;;11.27;100.00
6829;BME280;17930;48.592;8.868;2022-11-11T10:43:50;98308.50;;;11.37;100.00
6829;BME280;17930;48.592;8.868;2022-11-11T10:46:24;98307.47;;;11.87;100.00
6829;BME280;17930;48.592;8.868;2022-11-11T10:48:57;98307.72;;;12.07;100.00
6829;BME280;17930;48.592;8.868;2022-11-11T10:51:27;98310.22;;;11.97;100.00
6829;BME280;17930;48.592;8.868;2022-11-11T10:54:02;98311.69;;;12.09;100.00
6829;BME280;17930;48.592;8.868;2022-11-11T10:56:35;98315.22;;;12.41;100.00
6829;BME280;17930;48.592;8.868;2022-11-11T10:59:10;98315.00;;;12.69;100.00
6829;BME280;17930;48.592;8.868;2022-11-11T11:01:48;98308.44;;;13.14;100.00
6829;BME280;17930;48.592;8.868;2022-11-11T11:04:23;98304.16;;;13.08;100.00
6829;BME280;17930;48.592;8.868;2022-11-11T11:06:53;98304.75;;;13.15;100.00
6829;BME280;17930;48.592;8.868;2022-11-11T11:09:22;98307.38;;;13.15;100.00
6829;BME280;17930;48.592;8.868;2022-11-11T11:11:55;98301.47;;;13.65;100.00
6829;BME280;17930;48.592;8.868;2022-11-11T11:14:28;98304.44;;;14.20;100.00
6829;BME280;17930;48.592;8.868;2022-11-11T11:16:59;98298.13;;;15.11;100.00
6829;BME280;17930;48.592;8.868;2022-11-11T11:19:32;98291.47;;;16.08;100.00
6829;BME280;17930;48.592;8.868;2022-11-11T11:21:59;98292.50;;;16.75;100.00
6829;BME280;17930;48.592;8.868;2022-11-11T11:24:28;98286.31;;;17.65;100.00
6829;BME280;17930;48.592;8.868;2022-11-11T11:26:57;98287.16;;;18.12;100.00
6829;BME280;17930;48.592;8.868;2022-11-11T11:29:26;98289.38;;;18.70;100.00
6829;BME280;17930;48.592;8.868;2022-11-11T11:31:55;98288.00;;;18.91;100.00
6829;BME280;17930;48.592;8.868;2022-11-11T11:34:47;98276.88;;;19.44;100.00
6829;BME280;17930;48.592;8.868;2022-11-11T11:37:14;98277.56;;;19.18;100.00
6829;BME280;17930;48.592;8.868;2022-11-11T11:39:41;98280.84;;;18.73;100.00
6829;BME280;17930;48.592;8.868;2022-11-11T11:42:08;98283.38;;;18.83;100.00
6829;BME280;17930;48.592;8.868;2022-11-11T11:44:37;98291.41;;;18.55;100.00
6829;BME280;17930;48.592;8.868;2022-11-11T11:47:19;98282.06;;;18.62;100.00
6829;BME280;17930;48.592;8.868;2022-11-11T11:50:05;98286.94;;;18.92;100.00
6829;BME280;17930;48.592;8.868;2022-11-11T11:52:42;98278.28;;;18.68;100.00
6829;BME280;17930;48.592;8.868;2022-11-11T11:55:15;98281.78;;;18.22;100.00
6829;BME280;17930;48.592;8.868;2022-11-11T11:57:59;98284.00;;;17.31;100.00
6829;BME280;17930;48.592;8.868;2022-11-11T12:00:30;98285.16;;;17.10;100.00
6829;BME280;17930;48.592;8.868;2022-11-11T12:03:32;98282.41;;;16.92;100.00
6829;BME280;17930;48.592;8.868;2022-11-11T12:06:07;98285.09;;;17.25;100.00
6829;BME280;17930;48.592;8.868;2022-11-11T12:08:49;98279.84;;;17.53;100.00
6829;BME280;17930;48.592;8.868;2022-11-11T12:11:26;98277.31;;;17.71;100.00
6829;BME280;17930;48.592;8.868;2022-11-11T12:14:14;98270.16;;;17.95;100.00
6829;BME280;17930;48.592;8.868;2022-11-11T12:16:49;98268.19;;;17.82;100.00
6829;BME280;17930;48.592;8.868;2022-11-11T12:19:35;98270.78;;;18.15;100.00
6829;BME280;17930;48.592;8.868;2022-11-11T12:22:19;98268.41;;;18.92;100.00
6829;BME280;17930;48.592;8.868;2022-11-11T12:24:54;98265.63;;;19.02;100.00
6829;BME280;17930;48.592;8.868;2022-11-11T12:27:28;98263.44;;;19.41;100.00
6829;BME280;17930;48.592;8.868;2022-11-11T12:30:03;98266.44;;;19.66;100.00
6829;BME280;17930;48.592;8.868;2022-11-11T12:32:46;98265.72;;;20.19;100.00
6829;BME280;17930;48.592;8.868;2022-11-11T12:35:28;98262.59;;;19.90;100.00
6829;BME280;17930;48.592;8.868;2022-11-11T12:38:09;98265.72;;;19.92;100.00
6829;BME280;17930;48.592;8.868;2022-11-11T12:40:45;98265.53;;;20.29;100.00
6829;BME280;17930;48.592;8.868;2022-11-11T12:43:24;98265.72;;;19.92;100.00
6829;BME280;17930;48.592;8.868;2022-11-11T12:45:59;98259.34;;;19.93;100.00
6829;BME280;17930;48.592;8.868;2022-11-11T12:48:37;98257.22;;;19.63;100.00
6829;BME280;17930;48.592;8.868;2022-11-11T12:51:21;98258.09;;;19.27;100.00
6829;BME280;17930;48.592;8.868;2022-11-11T12:53:58;98249.09;;;19.73;100.00
6829;BME280;17930;48.592;8.868;2022-11-11T12:56:33;98251.09;;;20.08;100.00
6829;BME280;17930;48.592;8.868;2022-11-11T12:59:13;98244.16;;;20.60;100.00
6829;BME280;17930;48.592;8.868;2022-11-11T13:01:50;98252.50;;;20.67;100.00
6829;BME280;17930;48.592;8.868;2022-11-11T13:04:29;98253.44;;;20.85;100.00
6829;BME280;17930;48.592;8.868;2022-11-11T13:07:20;98258.09;;;21.14;100.00
6829;BME280;17930;48.592;8.868;2022-11-11T13:09:59;98251.00;;;21.10;100.00
6829;BME280;17930;48.592;8.868;2022-11-11T13:12:32;98250.63;;;21.03;100.00
6829;BME280;17930;48.592;8.868;2022-11-11T13:15:10;98250.69;;;20.28;100.00
6829;BME280;17930;48.592;8.868;2022-11-11T13:17:38;98256.78;;;18.93;100.00
6829;BME280;17930;48.592;8.868;2022-11-11T13:20:14;98249.91;;;18.55;100.00
6829;BME280;17930;48.592;8.868;2022-11-11T13:22:47;98253.47;;;18.83;100.00
6829;BME280;17930;48.592;8.868;2022-11-11T13:25:19;98248.25;;;19.14;100.00
6829;BME280;17930;48.592;8.868;2022-11-11T13:27:49;98254.31;;;18.60;100.00
6829;BME280;17930;48.592;8.868;2022-11-11T13:30:34;98256.44;;;17.70;100.00